Time;durP1;ratioP1;P1;durP2;ratioP2;P2;SDS_P1;SDS_P2;PMS_P1;PMS_P2;Temp;Humidity;BMP_temperature;BMP_pressure;BME280_temperature;BME280_humidity;BME280_pressure;Samples;Min_cycle;Max_cycle;Signal;HPM_P1;HPM_P2
2022/04/22 00:02:00;;;;;;;21.52;8.82;;;;;;;;;;4952579;28;20483;-66
2022/04/22 00:04:25;;;;;;;19.83;9.43;;;;;;;;;;4950790;28;20038;-66
2022/04/22 00:06:50;;;;;;;17.05;9.55;;;;;;;;;;4950727;28;20111;-66
2022/04/22 00:09:16;;;;;;;20.45;8.43;;;;;;;;;;4951102;28;20460;-65
2022/04/22 00:11:41;;;;;;;18.58;8.52;;;;;;;;;;4951025;28;20433;-65
2022/04/22 00:14:06;;;;;;;22.33;9.73;;;;;;;;;;4950739;28;20441;-65
2022/04/22 00:16:32;;;;;;;19.70;8.65;;;;;;;;;;4950586;28;20038;-66
2022/04/22 00:18:58;;;;;;;19.20;8.45;;;;;;;;;;4951717;28;20310;-66
2022/04/22 00:21:24;;;;;;;18.80;8.73;;;;;;;;;;4951356;28;20390;-65
2022/04/22 00:23:49;;;;;;;21.63;9.02;;;;;;;;;;4951452;28;20085;-66
2022/04/22 00:26:16;;;;;;;19.75;8.60;;;;;;;;;;4950585;28;20460;-65
2022/04/22 00:28:41;;;;;;;19.45;8.25;;;;;;;;;;4932921;28;20096;-66
2022/04/22 00:31:06;;;;;;;18.38;8.77;;;;;;;;;;4950049;28;20453;-66
2022/04/22 00:33:32;;;;;;;18.00;9.27;;;;;;;;;;4950404;28;20341;-66
2022/04/22 00:35:58;;;;;;;21.63;7.68;;;;;;;;;;4950234;28;20053;-66
2022/04/22 00:38:23;;;;;;;20.55;8.40;;;;;;;;;;4950683;28;20025;-65
2022/04/22 00:40:48;;;;;;;16.45;7.78;;;;;;;;;;4950653;28;20354;-66
2022/04/22 00:43:22;;;;;;;20.30;9.38;;;;;;;;;;4950583;28;20318;-66
2022/04/22 00:45:49;;;;;;;15.63;8.27;;;;;;;;;;4950167;28;20034;-65
2022/04/22 00:48:15;;;;;;;22.08;9.63;;;;;;;;;;4950250;28;20468;-66
2022/04/22 00:50:41;;;;;;;18.40;8.40;;;;;;;;;;4939939;28;20176;-66
2022/04/22 00:53:07;;;;;;;17.45;8.50;;;;;;;;;;4950300;28;20073;-68
2022/04/22 00:55:34;;;;;;;20.15;7.95;;;;;;;;;;4952105;28;20353;-66
2022/04/22 00:57:59;;;;;;;18.40;9.32;;;;;;;;;;4950865;28;20400;-65
2022/04/22 01:00:26;;;;;;;17.88;9.35;;;;;;;;;;4952959;28;20426;-66
2022/04/22 01:02:51;;;;;;;16.38;8.25;;;;;;;;;;4970145;28;20357;-65
2022/04/22 01:10:45;;;;;;;22.55;10.10;;;;;;;;;;4955272;28;20107;-66
2022/04/22 01:13:10;;;;;;;18.08;8.13;;;;;;;;;;4969121;28;20429;-66
2022/04/22 01:15:36;;;;;;;19.45;8.88;;;;;;;;;;4951941;28;20048;-65
2022/04/22 01:18:02;;;;;;;21.88;10.10;;;;;;;;;;4969674;28;20349;-65
2022/04/22 01:20:28;;;;;;;19.80;8.63;;;;;;;;;;4969609;28;20429;-66
2022/04/22 01:22:53;;;;;;;17.00;9.32;;;;;;;;;;4969488;28;20372;-66
2022/04/22 01:25:18;;;;;;;17.42;9.65;;;;;;;;;;4969406;28;20417;-66
2022/04/22 01:27:49;;;;;;;17.88;9.02;;;;;;;;;;4970558;28;20383;-66
2022/04/22 01:30:14;;;;;;;23.42;9.20;;;;;;;;;;4968145;28;20055;-66
2022/04/22 01:32:41;;;;;;;22.33;9.80;;;;;;;;;;4969022;28;20437;-66
2022/04/22 01:35:06;;;;;;;17.83;9.05;;;;;;;;;;4969324;28;20444;-66
2022/04/22 01:37:32;;;;;;;23.60;10.70;;;;;;;;;;4968969;28;20441;-66
2022/04/22 01:39:57;;;;;;;21.20;10.20;;;;;;;;;;4968919;28;20399;-66
2022/04/22 01:42:23;;;;;;;21.05;9.77;;;;;;;;;;4969015;28;20033;-66
2022/04/22 01:44:49;;;;;;;22.73;10.05;;;;;;;;;;4971421;28;20443;-66
2022/04/22 01:47:15;;;;;;;18.40;10.27;;;;;;;;;;4968923;28;20417;-65
2022/04/22 01:49:40;;;;;;;20.00;10.38;;;;;;;;;;4969242;28;20459;-66
2022/04/22 01:52:07;;;;;;;19.08;9.70;;;;;;;;;;4969696;28;20392;-65
2022/04/22 01:54:32;;;;;;;22.60;10.23;;;;;;;;;;4968617;28;20399;-66
2022/04/22 01:56:57;;;;;;;21.67;9.73;;;;;;;;;;4968613;28;20464;-66
2022/04/22 01:59:22;;;;;;;21.80;10.48;;;;;;;;;;4968603;28;20567;-65
2022/04/22 02:01:48;;;;;;;20.58;9.20;;;;;;;;;;4969847;28;20026;-65
2022/04/22 02:04:13;;;;;;;21.35;9.50;;;;;;;;;;4968846;28;20413;-66
2022/04/22 02:06:38;;;;;;;26.63;10.35;;;;;;;;;;4968711;28;20448;-66
2022/04/22 02:09:04;;;;;;;19.65;9.40;;;;;;;;;;4970505;28;20372;-66
2022/04/22 02:11:29;;;;;;;19.10;10.15;;;;;;;;;;4968949;28;20321;-66
2022/04/22 02:13:54;;;;;;;21.15;9.50;;;;;;;;;;4968660;28;20444;-66
2022/04/22 02:16:20;;;;;;;21.00;10.30;;;;;;;;;;4969762;28;20037;-66
2022/04/22 02:18:45;;;;;;;18.80;9.40;;;;;;;;;;4968998;28;20565;-65
2022/04/22 02:21:11;;;;;;;17.33;9.48;;;;;;;;;;4968978;28;20367;-66
2022/04/22 02:23:36;;;;;;;26.02;10.65;;;;;;;;;;4968110;28;20453;-66
2022/04/22 02:26:03;;;;;;;21.10;9.73;;;;;;;;;;4969315;28;20330;-65
2022/04/22 02:28:34;;;;;;;19.20;9.68;;;;;;;;;;4968522;28;20491;-65
2022/04/22 02:31:07;;;;;;;26.00;10.25;;;;;;;;;;4968601;28;20048;-65
2022/04/22 02:33:34;;;;;;;17.20;10.13;;;;;;;;;;4969010;28;20445;-65
2022/04/22 02:36:00;;;;;;;18.23;10.05;;;;;;;;;;4968329;28;20042;-64
2022/04/22 02:38:27;;;;;;;19.17;9.70;;;;;;;;;;4969213;28;20467;-65
2022/04/22 02:46:20;;;;;;;16.77;9.07;;;;;;;;;;4972250;28;20358;-65
2022/04/22 02:48:45;;;;;;;20.17;9.90;;;;;;;;;;4971884;28;20029;-65
2022/04/22 02:51:11;;;;;;;21.63;10.35;;;;;;;;;;4972195;28;20325;-65
2022/04/22 02:53:36;;;;;;;21.83;9.65;;;;;;;;;;4971981;28;20344;-65
2022/04/22 02:56:02;;;;;;;20.52;9.98;;;;;;;;;;4972142;28;20030;-65
2022/04/22 02:58:27;;;;;;;16.90;9.55;;;;;;;;;;4954108;28;20425;-65
2022/04/22 03:00:53;;;;;;;20.77;9.20;;;;;;;;;;4971869;28;20079;-65
2022/04/22 03:03:18;;;;;;;18.35;9.63;;;;;;;;;;4971561;28;20321;-66
2022/04/22 03:05:43;;;;;;;18.48;9.50;;;;;;;;;;4972262;28;20056;-66
2022/04/22 03:08:09;;;;;;;20.83;9.93;;;;;;;;;;4971881;28;20413;-65
2022/04/22 03:10:34;;;;;;;19.48;9.95;;;;;;;;;;4971499;28;20405;-65
2022/04/22 03:13:00;;;;;;;18.27;9.40;;;;;;;;;;4971704;28;20080;-65
2022/04/22 03:15:25;;;;;;;19.75;10.10;;;;;;;;;;4970923;28;20321;-65
2022/04/22 03:17:51;;;;;;;19.77;10.27;;;;;;;;;;4972314;28;20432;-66
2022/04/22 03:20:16;;;;;;;21.63;9.45;;;;;;;;;;4971179;28;20387;-65
2022/04/22 03:22:41;;;;;;;19.85;10.25;;;;;;;;;;4971629;28;20334;-65
2022/04/22 03:25:08;;;;;;;17.27;9.25;;;;;;;;;;4971163;28;20388;-66
2022/04/22 03:27:33;;;;;;;22.10;9.98;;;;;;;;;;4971314;28;20127;-65
2022/04/22 03:29:58;;;;;;;20.48;8.80;;;;;;;;;;4953319;28;20539;-65
2022/04/22 03:32:25;;;;;;;18.58;9.73;;;;;;;;;;4971538;28;20345;-65
2022/04/22 03:34:50;;;;;;;21.95;10.27;;;;;;;;;;4972579;28;20278;-65
2022/04/22 03:37:15;;;;;;;17.55;9.10;;;;;;;;;;4971115;28;20387;-65
2022/04/22 03:39:41;;;;;;;18.00;8.70;;;;;;;;;;4970878;28;20452;-65
2022/04/22 03:42:07;;;;;;;19.80;9.43;;;;;;;;;;4971721;28;20491;-65
2022/04/22 03:44:32;;;;;;;20.33;9.68;;;;;;;;;;4971402;28;20365;-65
2022/04/22 03:46:58;;;;;;;22.50;10.13;;;;;;;;;;4970771;28;20056;-65
2022/04/22 03:49:23;;;;;;;19.25;8.65;;;;;;;;;;4970820;28;20579;-65
2022/04/22 03:51:48;;;;;;;17.55;9.07;;;;;;;;;;4971954;28;20448;-67
2022/04/22 03:54:18;;;;;;;20.42;9.77;;;;;;;;;;4970195;28;20402;-65
2022/04/22 03:59:28;;;;;;;15.20;8.73;;;;;;;;;;4970753;28;20491;-65
2022/04/22 04:01:53;;;;;;;18.92;9.45;;;;;;;;;;4971971;28;20467;-65
2022/04/22 04:04:19;;;;;;;17.20;8.82;;;;;;;;;;4971842;28;20484;-65
2022/04/22 04:06:44;;;;;;;16.35;9.45;;;;;;;;;;4970165;28;20460;-65
2022/04/22 04:17:09;;;;;;;18.65;9.07;;;;;;;;;;4972219;28;20029;-65
2022/04/22 04:25:02;;;;;;;17.20;9.30;;;;;;;;;;4970138;28;20107;-65
2022/04/22 04:27:29;;;;;;;22.33;9.65;;;;;;;;;;4970096;28;20463;-65
2022/04/22 04:29:54;;;;;;;19.85;8.85;;;;;;;;;;4970587;28;20440;-66
2022/04/22 04:32:19;;;;;;;23.30;9.80;;;;;;;;;;4970203;28;20499;-65
2022/04/22 04:34:45;;;;;;;15.75;8.95;;;;;;;;;;4970116;28;20467;-66
2022/04/22 04:37:12;;;;;;;16.05;8.77;;;;;;;;;;4969882;28;20441;-65
2022/04/22 04:39:38;;;;;;;15.43;8.95;;;;;;;;;;4969863;28;20401;-65
2022/04/22 04:42:03;;;;;;;16.83;9.02;;;;;;;;;;4970197;28;20163;-65
2022/04/22 04:44:29;;;;;;;14.55;8.95;;;;;;;;;;4969363;28;20025;-65
2022/04/22 04:46:54;;;;;;;17.67;9.20;;;;;;;;;;4970028;28;20451;-66
2022/04/22 04:49:20;;;;;;;15.48;9.23;;;;;;;;;;4969630;28;20417;-65
2022/04/22 04:51:45;;;;;;;17.60;9.25;;;;;;;;;;4969561;28;20048;-65
2022/04/22 04:54:11;;;;;;;17.10;8.88;;;;;;;;;;4969648;28;20326;-66
2022/04/22 04:56:36;;;;;;;15.02;8.07;;;;;;;;;;4969624;28;20494;-65
2022/04/22 04:59:01;;;;;;;17.48;8.25;;;;;;;;;;4969327;28;20033;-65
2022/04/22 05:01:27;;;;;;;17.65;9.32;;;;;;;;;;4969334;28;20445;-66
2022/04/22 05:03:52;;;;;;;17.75;9.05;;;;;;;;;;4969592;28;20411;-66
2022/04/22 05:06:17;;;;;;;19.95;9.88;;;;;;;;;;4976304;28;20460;-65
2022/04/22 05:08:42;;;;;;;18.40;9.10;;;;;;;;;;4989929;28;20440;-65
2022/04/22 05:11:08;;;;;;;19.45;10.40;;;;;;;;;;4976080;28;20474;-65
2022/04/22 05:13:33;;;;;;;21.40;11.02;;;;;;;;;;4968158;28;20038;-65
2022/04/22 05:15:58;;;;;;;18.88;9.88;;;;;;;;;;4968158;28;20294;-65
2022/04/22 05:18:24;;;;;;;24.88;10.52;;;;;;;;;;4968722;28;20403;-65
2022/04/22 05:20:49;;;;;;;18.25;9.93;;;;;;;;;;4968680;28;20428;-65
2022/04/22 05:23:14;;;;;;;18.05;9.32;;;;;;;;;;4967952;28;20396;-65
2022/04/22 05:25:40;;;;;;;20.85;10.55;;;;;;;;;;4968123;28;20060;-65
2022/04/22 05:28:08;;;;;;;19.63;9.73;;;;;;;;;;4968665;28;20434;-65
2022/04/22 05:33:17;;;;;;;24.52;11.15;;;;;;;;;;4969471;28;20519;-65
2022/04/22 05:35:43;;;;;;;21.15;11.18;;;;;;;;;;4968640;28;20404;-65
2022/04/22 05:38:09;;;;;;;18.88;10.13;;;;;;;;;;4969038;28;20356;-65
2022/04/22 05:40:36;;;;;;;19.75;9.95;;;;;;;;;;4969127;28;20411;-64
2022/04/22 05:43:02;;;;;;;21.15;10.70;;;;;;;;;;4969326;28;20302;-65
2022/04/22 05:45:28;;;;;;;19.20;9.73;;;;;;;;;;4968914;28;20037;-65
2022/04/22 05:47:54;;;;;;;18.17;9.18;;;;;;;;;;4968941;28;20037;-65
2022/04/22 05:50:21;;;;;;;20.05;9.55;;;;;;;;;;4969331;28;20434;-65
2022/04/22 05:52:47;;;;;;;21.35;10.30;;;;;;;;;;4968695;28;20432;-65
2022/04/22 05:55:18;;;;;;;22.92;10.35;;;;;;;;;;4968913;28;20437;-65
2022/04/22 05:57:44;;;;;;;19.13;9.18;;;;;;;;;;4968651;28;20388;-65
2022/04/22 06:00:14;;;;;;;19.60;9.30;;;;;;;;;;4968953;28;20096;-66
2022/04/22 06:02:43;;;;;;;19.42;9.30;;;;;;;;;;4968901;28;20388;-66
2022/04/22 06:05:10;;;;;;;24.42;9.80;;;;;;;;;;4968878;28;20383;-65
2022/04/22 06:07:37;;;;;;;22.20;9.68;;;;;;;;;;4969387;28;20423;-66
2022/04/22 06:12:48;;;;;;;17.27;8.63;;;;;;;;;;4968741;28;20064;-65
2022/04/22 06:15:13;;;;;;;19.23;9.35;;;;;;;;;;4968720;28;20029;-65
2022/04/22 06:17:39;;;;;;;18.98;8.98;;;;;;;;;;4971622;28;20103;-66
2022/04/22 06:20:04;;;;;;;17.48;9.25;;;;;;;;;;4973436;28;20413;-65
2022/04/22 06:22:31;;;;;;;18.80;9.77;;;;;;;;;;4972212;28;20458;-66
2022/04/22 06:24:56;;;;;;;16.17;9.18;;;;;;;;;;4973136;28;20060;-66
2022/04/22 06:27:27;;;;;;;18.25;8.80;;;;;;;;;;4954298;28;20030;-65
2022/04/22 06:29:53;;;;;;;19.35;8.40;;;;;;;;;;4973089;28;20379;-65
2022/04/22 06:32:20;;;;;;;20.15;9.77;;;;;;;;;;4972664;28;20359;-66
2022/04/22 06:34:47;;;;;;;18.67;8.65;;;;;;;;;;4973923;28;20443;-65
2022/04/22 06:37:12;;;;;;;20.23;10.00;;;;;;;;;;4973652;28;20456;-65
2022/04/22 06:47:52;;;;;;;18.15;8.95;;;;;;;;;;4972138;28;20064;-66
2022/04/22 06:50:19;;;;;;;21.58;9.88;;;;;;;;;;4971701;28;20444;-65
2022/04/22 06:52:46;;;;;;;21.00;9.60;;;;;;;;;;4972185;28;20079;-65
2022/04/22 06:55:13;;;;;;;16.85;8.75;;;;;;;;;;4971626;28;20321;-66
2022/04/22 06:57:39;;;;;;;20.70;9.68;;;;;;;;;;4972056;28;20449;-65
2022/04/22 07:00:06;;;;;;;20.55;9.32;;;;;;;;;;4971787;28;20356;-66
2022/04/22 07:02:31;;;;;;;21.00;9.43;;;;;;;;;;4972253;28;20401;-65
2022/04/22 07:04:56;;;;;;;17.35;8.77;;;;;;;;;;4972506;28;20124;-65
2022/04/22 07:07:22;;;;;;;19.70;8.65;;;;;;;;;;4970941;28;20442;-66
2022/04/22 07:09:47;;;;;;;17.98;9.00;;;;;;;;;;4971937;28;20129;-66
2022/04/22 07:12:13;;;;;;;17.52;9.55;;;;;;;;;;4972830;28;20336;-66
2022/04/22 07:14:39;;;;;;;20.08;9.57;;;;;;;;;;4954397;28;20033;-65
2022/04/22 07:17:05;;;;;;;16.67;9.00;;;;;;;;;;4953953;28;20021;-65
2022/04/22 07:19:31;;;;;;;16.92;8.45;;;;;;;;;;4972691;28;20506;-65
2022/04/22 07:21:56;;;;;;;20.42;9.75;;;;;;;;;;4971395;28;20325;-65
2022/04/22 07:24:22;;;;;;;25.45;10.40;;;;;;;;;;4971451;28;20380;-65
2022/04/22 07:26:47;;;;;;;25.92;10.60;;;;;;;;;;4972200;28;20483;-65
2022/04/22 07:29:14;;;;;;;25.75;10.77;;;;;;;;;;4970562;28;20425;-65
2022/04/22 07:31:39;;;;;;;27.17;12.68;;;;;;;;;;4971017;28;20348;-66
2022/04/22 07:34:05;;;;;;;26.85;12.18;;;;;;;;;;4972013;28;20352;-65
2022/04/22 07:36:30;;;;;;;26.75;12.48;;;;;;;;;;4971764;28;20037;-65
2022/04/22 07:38:56;;;;;;;22.33;11.98;;;;;;;;;;4970756;28;20021;-66
2022/04/22 07:41:25;;;;;;;27.00;12.18;;;;;;;;;;4971154;28;20519;-65
2022/04/22 07:47:10;;;;;;;23.58;11.90;;;;;;;;;;4955996;28;20455;-65
2022/04/22 07:49:29;;;;;;;26.73;12.68;;;;;;;;;;4967878;28;20448;-66
2022/04/22 07:51:55;;;;;;;28.83;11.98;;;;;;;;;;4970687;28;20026;-66
2022/04/22 07:54:20;;;;;;;28.48;13.52;;;;;;;;;;4953105;28;20522;-65
2022/04/22 07:56:45;;;;;;;24.48;11.35;;;;;;;;;;4970333;28;20487;-65
2022/04/22 07:59:11;;;;;;;26.20;11.85;;;;;;;;;;4970768;28;20519;-65
2022/04/22 08:01:36;;;;;;;23.70;10.90;;;;;;;;;;4970460;28;20490;-65
2022/04/22 08:04:03;;;;;;;26.50;12.07;;;;;;;;;;4971808;28;20448;-65
2022/04/22 08:06:29;;;;;;;28.58;12.40;;;;;;;;;;4969760;28;20445;-65
2022/04/22 08:08:54;;;;;;;32.63;12.80;;;;;;;;;;4970135;28;20440;-66
2022/04/22 08:11:20;;;;;;;26.50;11.85;;;;;;;;;;4952009;28;20463;-65
2022/04/22 08:13:46;;;;;;;25.95;11.15;;;;;;;;;;4970134;28;20356;-65
2022/04/22 08:16:12;;;;;;;29.77;13.35;;;;;;;;;;4970707;28;20421;-65
2022/04/22 08:18:37;;;;;;;34.88;14.73;;;;;;;;;;4970510;28;20428;-65
2022/04/22 08:21:03;;;;;;;33.35;13.25;;;;;;;;;;4970237;28;20488;-65
2022/04/22 08:23:28;;;;;;;29.60;12.15;;;;;;;;;;4970735;28;20356;-65
2022/04/22 08:25:53;;;;;;;31.75;12.57;;;;;;;;;;4968378;28;20415;-65
2022/04/22 08:28:19;;;;;;;29.20;13.65;;;;;;;;;;4970637;28;20033;-65
2022/04/22 08:30:44;;;;;;;33.92;13.32;;;;;;;;;;4969723;28;20413;-65
2022/04/22 08:33:09;;;;;;;24.65;11.43;;;;;;;;;;4971632;28;20025;-65
2022/04/22 08:35:38;;;;;;;30.70;12.65;;;;;;;;;;4970826;28;20025;-65
2022/04/22 08:38:05;;;;;;;30.92;13.82;;;;;;;;;;4970126;28;20463;-65
2022/04/22 08:40:31;;;;;;;28.20;12.45;;;;;;;;;;4970451;28;20095;-65
2022/04/22 08:43:00;;;;;;;27.77;13.30;;;;;;;;;;4952160;28;20487;-65
2022/04/22 08:45:26;;;;;;;24.80;11.60;;;;;;;;;;4969870;28;20362;-65
2022/04/22 08:50:36;;;;;;;26.48;11.75;;;;;;;;;;4955669;28;20467;-65
2022/04/22 08:53:06;;;;;;;25.98;12.35;;;;;;;;;;4970870;28;20409;-66
2022/04/22 08:55:32;;;;;;;30.50;14.32;;;;;;;;;;4971446;28;20332;-66
2022/04/22 08:57:59;;;;;;;23.38;11.45;;;;;;;;;;4969997;28;20104;-65
2022/04/22 09:00:27;;;;;;;34.00;13.50;;;;;;;;;;4952271;28;20314;-65
2022/04/22 09:02:56;;;;;;;31.13;12.60;;;;;;;;;;4970071;28;20321;-66
2022/04/22 09:05:21;;;;;;;;;;;;;;;;;;4970170;28;20437;-65
2022/04/22 09:07:47;;;;;;;27.75;10.50;;;;;;;;;;4970245;28;20359;-65
2022/04/22 09:10:13;;;;;;;27.42;11.90;;;;;;;;;;4952057;28;20419;-65
2022/04/22 09:12:43;;;;;;;24.35;11.93;;;;;;;;;;4969323;28;20095;-65
2022/04/22 09:15:09;;;;;;;26.15;12.15;;;;;;;;;;4951677;28;20353;-65
2022/04/22 09:17:36;;;;;;;27.80;12.27;;;;;;;;;;4969135;28;20334;-65
2022/04/22 09:20:03;;;;;;;24.88;11.60;;;;;;;;;;4970293;28;20456;-65
2022/04/22 09:22:34;;;;;;;24.42;11.10;;;;;;;;;;4969107;28;20451;-65
2022/04/22 09:24:59;;;;;;;27.17;11.88;;;;;;;;;;4969423;28;20322;-65
2022/04/22 09:27:38;;;;;;;29.13;10.63;;;;;;;;;;4968977;28;20044;-65
2022/04/22 09:30:07;;;;;;;23.83;10.75;;;;;;;;;;4969280;28;20528;-66
2022/04/22 09:32:37;;;;;;;29.38;11.57;;;;;;;;;;4968685;28;20322;-65
2022/04/22 09:35:12;;;;;;;21.60;9.77;;;;;;;;;;4968805;28;20415;-64
2022/04/22 09:43:39;;;;;;;23.20;9.98;;;;;;;;;;4969762;28;20415;-64
2022/04/22 09:46:04;;;;;;;21.10;10.27;;;;;;;;;;4969107;28;20471;-64
2022/04/22 09:48:41;;;;;;;23.75;11.13;;;;;;;;;;4969037;28;20437;-64
2022/04/22 09:51:20;;;;;;;29.27;11.20;;;;;;;;;;4969483;28;20087;-65
2022/04/22 09:53:47;;;;;;;20.60;9.48;;;;;;;;;;4972923;28;20321;-64
2022/04/22 09:56:12;;;;;;;22.95;10.02;;;;;;;;;;4972805;28;20395;-65
2022/04/22 09:58:37;;;;;;;22.27;9.93;;;;;;;;;;4973454;28;20025;-65
2022/04/22 10:01:07;;;;;;;21.83;10.82;;;;;;;;;;4974704;28;20456;-65
2022/04/22 10:03:38;;;;;;;;;;;;;;;;;;4973033;28;20444;-65
2022/04/22 10:06:05;;;;;;;19.02;8.70;;;;;;;;;;4972513;28;20209;-66
2022/04/22 10:08:31;;;;;;;18.35;9.05;;;;;;;;;;4972601;28;20037;-65
2022/04/22 10:11:00;;;;;;;17.15;8.70;;;;;;;;;;4973203;28;20336;-64
2022/04/22 10:13:30;;;;;;;21.60;9.82;;;;;;;;;;4973935;28;20397;-64
2022/04/22 10:15:56;;;;;;;25.52;8.73;;;;;;;;;;4955290;28;20348;-64
2022/04/22 10:18:22;;;;;;;19.00;7.78;;;;;;;;;;4954755;28;20325;-64
2022/04/22 10:20:48;;;;;;;19.05;8.95;;;;;;;;;;4955354;28;20490;-64
2022/04/22 10:23:14;;;;;;;15.90;7.65;;;;;;;;;;4972536;28;20052;-64
2022/04/22 10:25:39;;;;;;;17.27;7.53;;;;;;;;;;4973287;28;20421;-65
2022/04/22 10:28:06;;;;;;;20.75;8.73;;;;;;;;;;4972446;28;20420;-65
2022/04/22 10:30:32;;;;;;;23.60;9.30;;;;;;;;;;4954841;28;20442;-65
2022/04/22 10:32:59;;;;;;;17.85;8.48;;;;;;;;;;4954665;28;20298;-64
2022/04/22 10:35:25;;;;;;;20.95;8.73;;;;;;;;;;4972031;28;20364;-64
2022/04/22 10:37:52;;;;;;;21.05;8.60;;;;;;;;;;4972958;28;20439;-64
2022/04/22 10:40:22;;;;;;;21.48;9.27;;;;;;;;;;4972026;28;20470;-64
2022/04/22 10:42:48;;;;;;;19.90;9.27;;;;;;;;;;4973578;28;20380;-65
2022/04/22 10:47:57;;;;;;;19.98;9.27;;;;;;;;;;4972934;28;20056;-64
2022/04/22 10:50:34;;;;;;;22.73;9.38;;;;;;;;;;4971931;28;20519;-64
2022/04/22 10:53:04;;;;;;;23.92;9.00;;;;;;;;;;4971909;28;20453;-65
2022/04/22 10:55:34;;;;;;;22.95;9.25;;;;;;;;;;4971777;28;20545;-64
2022/04/22 10:58:12;;;;;;;18.10;8.35;;;;;;;;;;4955010;28;20344;-64
2022/04/22 11:00:40;;;;;;;20.55;9.55;;;;;;;;;;4972176;28;20315;-64
2022/04/22 11:03:16;;;;;;;16.60;7.70;;;;;;;;;;4953171;28;20654;-63
2022/04/22 11:05:57;;;;;;;19.05;8.35;;;;;;;;;;4971920;28;20102;-64
2022/04/22 11:08:29;;;;;;;19.27;8.18;;;;;;;;;;4972739;28;20411;-64
2022/04/22 11:10:54;;;;;;;18.73;8.35;;;;;;;;;;4971639;28;20048;-65
2022/04/22 11:13:41;;;;;;;20.35;8.13;;;;;;;;;;4953717;28;20029;-64
2022/04/22 11:16:22;;;;;;;19.40;8.73;;;;;;;;;;4972199;28;20440;-65
2022/04/22 11:19:18;;;;;;;18.63;8.48;;;;;;;;;;4971998;28;20052;-64
2022/04/22 11:21:45;;;;;;;20.10;8.38;;;;;;;;;;4953138;28;20367;-65
2022/04/22 11:24:15;;;;;;;19.27;7.72;;;;;;;;;;4953738;28;20021;-64
2022/04/22 11:26:45;;;;;;;25.55;9.82;;;;;;;;;;4972280;28;20315;-64
2022/04/22 11:29:11;;;;;;;20.77;8.63;;;;;;;;;;4972298;28;20037;-64
2022/04/22 11:31:38;;;;;;;23.67;9.32;;;;;;;;;;4971418;28;20455;-63
2022/04/22 11:34:07;;;;;;;19.52;9.38;;;;;;;;;;4972721;28;20416;-64
2022/04/22 11:36:45;;;;;;;25.17;9.77;;;;;;;;;;4971183;28;20048;-64
2022/04/22 11:39:20;;;;;;;24.92;8.98;;;;;;;;;;4971156;28;20029;-64
2022/04/22 11:42:00;;;;;;;21.08;9.65;;;;;;;;;;4953295;28;20037;-64
2022/04/22 11:44:25;;;;;;;20.88;9.50;;;;;;;;;;4970707;28;20465;-65
2022/04/22 11:46:54;;;;;;;20.70;9.23;;;;;;;;;;4970764;28;20426;-65
2022/04/22 11:49:20;;;;;;;19.08;8.18;;;;;;;;;;4970696;28;20468;-65
2022/04/22 11:51:50;;;;;;;18.15;8.30;;;;;;;;;;4970902;28;20502;-64
2022/04/22 11:54:21;;;;;;;19.13;8.25;;;;;;;;;;4971129;28;20424;-63
2022/04/22 11:56:46;;;;;;;19.33;8.70;;;;;;;;;;4971140;28;20061;-64
2022/04/22 11:59:12;;;;;;;18.25;8.13;;;;;;;;;;4971012;28;20037;-63
2022/04/22 12:10:00;;;;;;;18.88;8.88;;;;;;;;;;4971271;28;20392;-64
2022/04/22 12:12:28;;;;;;;15.80;7.90;;;;;;;;;;4970215;28;20436;-64
2022/04/22 12:15:02;;;;;;;17.63;7.68;;;;;;;;;;4970422;28;20072;-64
2022/04/22 12:17:28;;;;;;;20.27;8.93;;;;;;;;;;4970399;28;20398;-65
2022/04/22 12:19:53;;;;;;;18.17;8.02;;;;;;;;;;4969905;28;20348;-64
2022/04/22 12:22:20;;;;;;;20.52;8.88;;;;;;;;;;4953965;28;20507;-64
2022/04/22 12:25:07;;;;;;;20.23;9.05;;;;;;;;;;4969843;28;20030;-65
2022/04/22 12:27:33;;;;;;;17.75;8.05;;;;;;;;;;4970702;28;20428;-64
2022/04/22 12:30:04;;;;;;;23.00;8.13;;;;;;;;;;4969885;28;20479;-65
2022/04/22 12:32:29;;;;;;;21.55;9.18;;;;;;;;;;4970084;28;20449;-64
2022/04/22 12:35:15;;;;;;;16.63;8.18;;;;;;;;;;4971516;28;20441;-64
2022/04/22 12:37:46;;;;;;;17.98;8.07;;;;;;;;;;4969477;28;20361;-64
2022/04/22 12:40:12;;;;;;;20.52;8.70;;;;;;;;;;4969719;28;20326;-65
2022/04/22 12:42:39;;;;;;;20.35;8.13;;;;;;;;;;4970648;28;20029;-65
2022/04/22 12:53:50;;;;;;;18.27;8.02;;;;;;;;;;4972168;28;20431;-65
2022/04/22 12:56:15;;;;;;;16.90;8.35;;;;;;;;;;4971195;28;20433;-64
2022/04/22 12:59:00;;;;;;;14.15;7.53;;;;;;;;;;4969858;28;20368;-65
2022/04/22 13:01:27;;;;;;;19.90;8.68;;;;;;;;;;4969312;28;20516;-65
2022/04/22 13:03:53;;;;;;;18.17;8.23;;;;;;;;;;4970051;28;20396;-66
2022/04/22 13:06:38;;;;;;;16.20;7.15;;;;;;;;;;4969149;28;20458;-65
2022/04/22 13:09:03;;;;;;;14.77;6.93;;;;;;;;;;4970863;28;20380;-65
2022/04/22 13:11:29;;;;;;;13.80;6.90;;;;;;;;;;4969430;28;20387;-65
2022/04/22 13:13:54;;;;;;;13.10;6.45;;;;;;;;;;4969630;28;20395;-69
2022/04/22 13:16:19;;;;;;;15.02;7.40;;;;;;;;;;4969382;28;20353;-64
2022/04/22 13:18:44;;;;;;;15.82;6.97;;;;;;;;;;4969510;28;20056;-65
2022/04/22 13:21:10;;;;;;;16.75;7.65;;;;;;;;;;4969508;28;20429;-64
2022/04/22 13:23:36;;;;;;;12.80;7.28;;;;;;;;;;4969073;28;20392;-65
2022/04/22 13:26:02;;;;;;;12.63;6.90;;;;;;;;;;4968655;28;20472;-64
2022/04/22 13:28:28;;;;;;;15.63;7.78;;;;;;;;;;4952129;28;20395;-63
2022/04/22 13:30:53;;;;;;;15.32;7.15;;;;;;;;;;4969511;28;20349;-65
2022/04/22 13:33:18;;;;;;;13.40;6.90;;;;;;;;;;4969017;28;20421;-63
2022/04/22 13:35:44;;;;;;;14.20;6.68;;;;;;;;;;4968874;28;20536;-64
2022/04/22 13:38:09;;;;;;;11.70;6.93;;;;;;;;;;4969133;28;20025;-64
2022/04/22 13:40:35;;;;;;;12.60;6.75;;;;;;;;;;4969190;28;20454;-65
2022/04/22 13:43:00;;;;;;;13.85;6.28;;;;;;;;;;4969233;28;20520;-64
2022/04/22 13:53:38;;;;;;;10.65;6.03;;;;;;;;;;4970354;28;20052;-65
2022/04/22 13:56:04;;;;;;;14.27;6.65;;;;;;;;;;4969066;28;20041;-65
2022/04/22 13:58:32;;;;;;;12.95;6.22;;;;;;;;;;4969680;28;20330;-65
2022/04/22 14:00:57;;;;;;;12.68;6.03;;;;;;;;;;4969180;28;20463;-67
2022/04/22 14:03:22;;;;;;;12.10;5.60;;;;;;;;;;4969304;28;20397;-65
2022/04/22 14:05:48;;;;;;;16.58;6.53;;;;;;;;;;4951972;28;20411;-66
2022/04/22 14:08:14;;;;;;;13.05;6.47;;;;;;;;;;4968959;28;20494;-64
2022/04/22 14:10:39;;;;;;;11.07;5.85;;;;;;;;;;4969627;28;20329;-64
2022/04/22 14:13:05;;;;;;;12.07;5.50;;;;;;;;;;4968470;28;20022;-64
2022/04/22 14:15:30;;;;;;;11.43;5.68;;;;;;;;;;4969902;28;20380;-64
2022/04/22 14:17:55;;;;;;;13.73;5.80;;;;;;;;;;4969101;28;20483;-65
2022/04/22 14:20:21;;;;;;;10.55;5.75;;;;;;;;;;4968815;28;20490;-65
2022/04/22 14:22:46;;;;;;;11.68;6.38;;;;;;;;;;4969573;28;20456;-64
2022/04/22 14:25:12;;;;;;;12.40;5.60;;;;;;;;;;4968908;28;20425;-64
2022/04/22 14:27:37;;;;;;;8.57;5.30;;;;;;;;;;4968792;28;20448;-64
2022/04/22 14:30:04;;;;;;;13.25;6.38;;;;;;;;;;4968711;28;20337;-65
2022/04/22 14:32:29;;;;;;;11.05;5.47;;;;;;;;;;4968465;28;20052;-66
2022/04/22 14:34:54;;;;;;;8.35;4.63;;;;;;;;;;4968450;28;20428;-64
2022/04/22 14:37:20;;;;;;;10.98;5.60;;;;;;;;;;4970294;28;20452;-65
2022/04/22 14:39:45;;;;;;;13.55;5.10;;;;;;;;;;4973184;28;20317;-65
2022/04/22 14:42:10;;;;;;;11.38;5.30;;;;;;;;;;4972298;28;20444;-65
2022/04/22 14:44:36;;;;;;;12.50;5.28;;;;;;;;;;4972118;28;20449;-64
2022/04/22 14:47:01;;;;;;;10.52;5.63;;;;;;;;;;4972508;28;20344;-65
2022/04/22 14:49:27;;;;;;;13.45;5.70;;;;;;;;;;4972165;28;20372;-66
2022/04/22 14:51:53;;;;;;;10.43;4.82;;;;;;;;;;4971834;28;20033;-64
2022/04/22 14:54:18;;;;;;;9.25;4.13;;;;;;;;;;4972720;28;20391;-65
2022/04/22 14:56:44;;;;;;;9.07;4.53;;;;;;;;;;4971662;28;20425;-64
2022/04/22 14:59:10;;;;;;;10.30;5.38;;;;;;;;;;4973123;28;20364;-66
2022/04/22 15:01:36;;;;;;;8.68;5.05;;;;;;;;;;4972252;28;20409;-65
2022/04/22 15:04:02;;;;;;;9.45;4.93;;;;;;;;;;4971622;28;20049;-65
2022/04/22 15:06:27;;;;;;;9.65;4.05;;;;;;;;;;4970897;28;20449;-65
2022/04/22 15:08:53;;;;;;;9.70;4.68;;;;;;;;;;4971260;28;20460;-65
2022/04/22 15:11:18;;;;;;;7.40;4.25;;;;;;;;;;4971072;28;20044;-65
2022/04/22 15:13:44;;;;;;;7.00;4.35;;;;;;;;;;4971352;28;20041;-65
2022/04/22 15:16:09;;;;;;;9.25;5.28;;;;;;;;;;4972963;28;20413;-65
2022/04/22 15:24:09;;;;;;;11.98;4.35;;;;;;;;;;4972239;28;20506;-65
2022/04/22 15:26:38;;;;;;;7.50;3.92;;;;;;;;;;4971947;28;20356;-64
2022/04/22 15:29:06;;;;;;;8.50;3.88;;;;;;;;;;4971359;28;20487;-65
2022/04/22 15:31:32;;;;;;;9.90;4.00;;;;;;;;;;4971612;28;20445;-65
2022/04/22 15:33:57;;;;;;;7.30;4.15;;;;;;;;;;4972203;28;20683;-65
2022/04/22 15:36:23;;;;;;;8.70;4.20;;;;;;;;;;4970721;28;20368;-65
2022/04/22 15:38:49;;;;;;;8.85;4.60;;;;;;;;;;4971439;28;20357;-65
2022/04/22 15:41:17;;;;;;;12.90;5.20;;;;;;;;;;4972016;28;20401;-65
2022/04/22 15:43:44;;;;;;;11.00;5.60;;;;;;;;;;4972841;28;20421;-64
2022/04/22 15:46:11;;;;;;;11.32;6.15;;;;;;;;;;4971305;28;20379;-66
2022/04/22 15:48:36;;;;;;;12.20;5.82;;;;;;;;;;4970425;28;20448;-65
2022/04/22 15:51:04;;;;;;;10.43;5.60;;;;;;;;;;4971505;28;20456;-65
2022/04/22 15:53:29;;;;;;;11.32;5.95;;;;;;;;;;4970882;28;20452;-65